Schleswig Jagel, Germany

4:43 PM CEST on August 04, 2015 (GMT +0200)
Schleswig Air Base | | Change Station
CLOSE
Current Station
Airport
Location: Schleswig Jagel,
Elevation: 82 ft
Nearby Weather Stations

Elev 82 ft 54.46 °N, 9.52 °E | Updated 23 minutes ago

Overcast
Overcast
73 °F
Feels Like 73 °F
N
14
Wind Variable Wind from WNW

Today
High -- | Low -- °F
--% Chance of Precip.
Yesterday
High -- | Low -- °F
Precip. -- in
5:37 AM 9:17 PM
Waning Gibbous, 77% visible
Pressure 29.86 in
Visibility 6.2 miles
Clouds Few 3000 ft
Overcast 15000 ft
Dew Point 61 °F
Humidity 65%
Rainfall 0.00 in
Snow Depth Not available.
UV 2 out of 12
Pollen Not available.
Air Quality Not available.
Flu Activity Not available.
METAR ETNS 041420Z 30012KT 9999 FEW030 OVC150 23/16 Q1011 BLU

More Conditions Fewer Conditions

Pressure 29.86 in
Visibility 6.2 miles
Clouds Few 3000 ft
Overcast 15000 ft
Dew Point 61 °F
Humidity 65%
Rainfall 0.00 in
Snow Depth Not available.
UV 2 out of 12
Pollen Not available.
Air Quality Not available.
Flu Activity Not available.
METAR ETNS 041420Z 30012KT 9999 FEW030 OVC150 23/16 Q1011 BLU

More Conditions Fewer Conditions

10-Day Weather Forecast

×

Almanac

Astronomy

Aug. 04, 2015 Rise Set
Actual Time
Civil Twilight
Nautical Twilight
Astronomical Twilight
Moon
Length of Visible Light
Length of Day
Tomorrow will be .
, % of the Moon is Illuminated

Today's Extremes

Country Highs Country Lows

Community

WunderPhotos

Upload Photos

1,843,921 photos uploaded!

WunderBlogs® & News

Nearby

Air Quality

  Air Quality AQ Index Pollutant
Not available.

Snow Depth

Station Depth Elevation

Earthquake Activity

City Distance Mag. Time & Date
Minimum magnitude displayed is 2.5.

Coastal Water Temperatures

Place Temperature

Stations

Nearby Weather Stations

Station Location Temp. Windchill Dew Point Humidity Wind Precip. Elev Updated Type